Home > Products > Valid Products > TAF

000
FTUS44 KMOB 222300
TAFMOB
TAF
KMOB 222330Z 2300/2324 09010KT P6SM OVC013
     FM230300 09010KT P6SM OVC009
     FM230900 10012G17KT 5SM -SHRA BR OVC007
     FM231200 13014G24KT 4SM TSRA OVC004CB
     FM231800 20015G25KT P6SM VCSH BKN025=



000
FTUS44 KMOB 222300
TAFPNS
TAF
KPNS 222330Z 2300/2324 04004KT 6SM -RA BR OVC003
      TEMPO 2300/2303 OVC006
     FM230300 09010KT P6SM OVC005
     FM231100 13012G17KT 5SM -SHRA BR OVC007
     FM231300 15015G25KT 4SM TSRA OVC004CB
     FM232000 20015G25KT P6SM VCSH BKN035=



000
FTUS44 KMOB 222300
TAFMOB
TAF
KMOB 222330Z 2300/2324 09010KT P6SM OVC013
     FM230300 09010KT P6SM OVC009
     FM230900 10012G17KT 5SM -SHRA BR OVC007
     FM231200 13014G24KT 4SM TSRA OVC004CB
     FM231800 20015G25KT P6SM VCSH BKN025=



000
FTUS44 KMOB 222300
TAFPNS
TAF
KPNS 222330Z 2300/2324 04004KT 6SM -RA BR OVC003
      TEMPO 2300/2303 OVC006
     FM230300 09010KT P6SM OVC005
     FM231100 13012G17KT 5SM -SHRA BR OVC007
     FM231300 15015G25KT 4SM TSRA OVC004CB
     FM232000 20015G25KT P6SM VCSH BKN035=



000
FTUS44 KMOB 222200 AAA
TAFPNS
TAF AMD
KPNS 222228Z 2222/2318 06005KT P6SM SCT003 BKN009
      TEMPO 2223/2303 6SM -RA OVC003
     FM230600 07013G17KT 4SM -SHRA BR OVC007
     FM230800 15015G25KT 3SM TSRA OVC004CB=



000
FTUS44 KMOB 222200 AAA
TAFPNS
TAF AMD
KPNS 222228Z 2222/2318 06005KT P6SM SCT003 BKN009
      TEMPO 2223/2303 6SM -RA OVC003
     FM230600 07013G17KT 4SM -SHRA BR OVC007
     FM230800 15015G25KT 3SM TSRA OVC004CB=



000
FTUS44 KMOB 222200 AAA
TAFMOB
TAF AMD
KMOB 222226Z 2222/2318 09007KT P6SM OVC017
     FM230100 09011G16KT P6SM OVC015
     FM230900 08013G17KT 5SM -SHRA BR OVC007
     FM231100 12013G23KT 4SM TSRA OVC004CB=



000
FTUS44 KMOB 222200 AAA
TAFMOB
TAF AMD
KMOB 222226Z 2222/2318 09007KT P6SM OVC017
     FM230100 09011G16KT P6SM OVC015
     FM230900 08013G17KT 5SM -SHRA BR OVC007
     FM231100 12013G23KT 4SM TSRA OVC004CB=



000
FTUS44 KMOB 221700 RRA
TAFMOB
TAF
KMOB 221755Z 2218/2318 11011KT P6SM FEW040 FEW070 SCT230
     FM230100 09011G16KT P6SM OVC015
     FM230900 08013G17KT 5SM -SHRA BR OVC007
     FM231100 12013G23KT 4SM TSRA OVC004CB=



000
FTUS44 KMOB 221700 RRA
TAFMOB
TAF
KMOB 221755Z 2218/2318 11011KT P6SM FEW040 FEW070 SCT230
     FM230100 09011G16KT P6SM OVC015
     FM230900 08013G17KT 5SM -SHRA BR OVC007
     FM231100 12013G23KT 4SM TSRA OVC004CB=



000
FTUS44 KMOB 221700 RRA
TAFPNS
TAF
KPNS 221755Z 2218/2318 12010KT P6SM BKN025 OVC030
     FM222100 09011G17KT P6SM OVC015
     FM230600 07013G17KT 4SM -SHRA BR OVC007
     FM230800 15015G25KT 3SM TSRA OVC004CB=



000
FTUS44 KMOB 221700 RRA
TAFPNS
TAF
KPNS 221755Z 2218/2318 12010KT P6SM BKN025 OVC030
     FM222100 09011G17KT P6SM OVC015
     FM230600 07013G17KT 4SM -SHRA BR OVC007
     FM230800 15015G25KT 3SM TSRA OVC004CB=



000
FTUS44 KMOB 221100
TAFMOB
TAF
KMOB 221139Z 2212/2312 07009KT P6SM SKC
     FM221800 11013G18KT P6SM SCT020 BKN040
     FM230100 09011G16KT P6SM OVC015
     FM230900 08013G17KT 5SM -SHRA BR OVC007=



000
FTUS44 KMOB 221100
TAFPNS
TAF
KPNS 221139Z 2212/2312 04008KT P6SM SKC
     FM221800 10011G17KT P6SM BKN025
     FM222100 09011G17KT P6SM OVC015
     FM230900 07013G17KT 4SM -SHRA BR OVC007=



000
FTUS44 KMOB 221100
TAFPNS
TAF
KPNS 221139Z 2212/2312 04008KT P6SM SKC
     FM221800 10011G17KT P6SM BKN025
     FM222100 09011G17KT P6SM OVC015
     FM230900 07013G17KT 4SM -SHRA BR OVC007=



000
FTUS44 KMOB 221100
TAFMOB
TAF
KMOB 221139Z 2212/2312 07009KT P6SM SKC
     FM221800 11013G18KT P6SM SCT020 BKN040
     FM230100 09011G16KT P6SM OVC015
     FM230900 08013G17KT 5SM -SHRA BR OVC007=



000
FTUS44 KMOB 220500
TAFPNS
TAF
KPNS 220522Z 2206/2306 06003KT P6SM SKC
     FM221200 09011KT P6SM BKN250
     FM221800 09010KT P6SM BKN050
     FM230100 09010KT 5SM BR BKN015=



000
FTUS44 KMOB 220500
TAFPNS
TAF
KPNS 220522Z 2206/2306 06003KT P6SM SKC
     FM221200 09011KT P6SM BKN250
     FM221800 09010KT P6SM BKN050
     FM230100 09010KT 5SM BR BKN015=



000
FTUS44 KMOB 220500
TAFMOB
TAF
KMOB 220522Z 2206/2306 05004KT P6SM SKC
     FM221200 09011KT P6SM BKN250
     FM221800 11010KT P6SM BKN050
     FM230100 09010KT 5SM BR BKN015=



000
FTUS44 KMOB 220500
TAFMOB
TAF
KMOB 220522Z 2206/2306 05004KT P6SM SKC
     FM221200 09011KT P6SM BKN250
     FM221800 11010KT P6SM BKN050
     FM230100 09010KT 5SM BR BKN015=



000
FTUS44 KMOB 212300
TAFPNS
TAF
KPNS 212320Z 2200/2224 00000KT P6SM SCT200
     FM221200 09011KT P6SM BKN250
     FM221800 09010KT P6SM BKN050=



000
FTUS44 KMOB 212300
TAFMOB
TAF
KMOB 212320Z 2200/2224 18005KT P6SM SCT200
     FM221200 09011KT P6SM BKN250
     FM221800 11010KT P6SM BKN050=



000
FTUS44 KMOB 212300
TAFPNS
TAF
KPNS 212320Z 2200/2224 00000KT P6SM SCT200
     FM221200 09011KT P6SM BKN250
     FM221800 09010KT P6SM BKN050=



000
FTUS44 KMOB 212300
TAFMOB
TAF
KMOB 212320Z 2200/2224 18005KT P6SM SCT200
     FM221200 09011KT P6SM BKN250
     FM221800 11010KT P6SM BKN050=



000
FTUS44 KMOB 211700
TAFPNS
TAF
KPNS 211733Z 2118/2218 08007KT P6SM SKC
     FM221200 09011KT P6SM BKN250=



000
FTUS44 KMOB 211700
TAFMOB
TAF
KMOB 211733Z 2118/2218 09010KT P6SM SKC
     FM221200 09011KT P6SM BKN250=



000
FTUS44 KMOB 211700
TAFMOB
TAF
KMOB 211733Z 2118/2218 09010KT P6SM SKC
     FM221200 09011KT P6SM BKN250=



000
FTUS44 KMOB 211700
TAFPNS
TAF
KPNS 211733Z 2118/2218 08007KT P6SM SKC
     FM221200 09011KT P6SM BKN250=



000
FTUS44 KMOB 211100
TAFPNS
TAF
KPNS 211126Z 2112/2212 00000KT P6SM SKC
     FM211800 08010KT P6SM FEW040=



000
FTUS44 KMOB 211100
TAFMOB
TAF
KMOB 211126Z 2112/2212 03003KT P6SM SKC
     FM211800 10011KT P6SM SCT040=



000
FTUS44 KMOB 211100
TAFPNS
TAF
KPNS 211126Z 2112/2212 00000KT P6SM SKC
     FM211800 08010KT P6SM FEW040=



000
FTUS44 KMOB 211100
TAFMOB
TAF
KMOB 211126Z 2112/2212 03003KT P6SM SKC
     FM211800 10011KT P6SM SCT040=



000
FTUS44 KMOB 210500
TAFMOB
TAF
KMOB 210520Z 2106/2206 00000KT P6SM SKC
     FM211500 09009KT P6SM SKC=



000
FTUS44 KMOB 210500
TAFPNS
TAF
KPNS 210520Z 2106/2206 00000KT P6SM SKC
     FM211500 08008KT P6SM SKC=



000
FTUS44 KMOB 210500
TAFMOB
TAF
KMOB 210520Z 2106/2206 00000KT P6SM SKC
     FM211500 09009KT P6SM SKC=



000
FTUS44 KMOB 210500
TAFPNS
TAF
KPNS 210520Z 2106/2206 00000KT P6SM SKC
     FM211500 08008KT P6SM SKC=



000
FTUS44 KMOB 202300
TAFPNS
TAF
KPNS 202320Z 2100/2124 22005KT P6SM SKC
     FM210300 00000KT P6SM BKN250
     FM211500 08008KT P6SM SKC=



000
FTUS44 KMOB 202300
TAFPNS
TAF
KPNS 202320Z 2100/2124 22005KT P6SM SKC
     FM210300 00000KT P6SM BKN250
     FM211500 08008KT P6SM SKC=



000
FTUS44 KMOB 202300
TAFMOB
TAF
KMOB 202320Z 2100/2124 19007KT P6SM SCT060
     FM210300 00000KT P6SM BKN250
     FM211500 09009KT P6SM SKC=



000
FTUS44 KMOB 202300
TAFMOB
TAF
KMOB 202320Z 2100/2124 19007KT P6SM SCT060
     FM210300 00000KT P6SM BKN250
     FM211500 09009KT P6SM SKC=



000
FTUS44 KMOB 201700 RRA
TAFPNS
TAF
KPNS 201746Z 2018/2118 VRB03KT P6SM FEW025
     FM202100 13007KT P6SM SCT250
     FM210900 00000KT P6SM BKN250
     FM211500 07006KT P6SM SKC=



000
FTUS44 KMOB 201700 RRA
TAFMOB
TAF
KMOB 201746Z 2018/2118 VRB03KT P6SM BKN050
     FM202000 17007KT P6SM BKN250
     FM210600 00000KT P6SM BKN250
     FM211500 07006KT P6SM SKC=



000
FTUS44 KMOB 201700 RRA
TAFPNS
TAF
KPNS 201746Z 2018/2118 VRB03KT P6SM FEW025
     FM202100 13007KT P6SM SCT250
     FM210900 00000KT P6SM BKN250
     FM211500 07006KT P6SM SKC=



000
FTUS44 KMOB 201700 RRA
TAFMOB
TAF
KMOB 201746Z 2018/2118 VRB03KT P6SM BKN050
     FM202000 17007KT P6SM BKN250
     FM210600 00000KT P6SM BKN250
     FM211500 07006KT P6SM SKC=



000
FTUS44 KMOB 201100 RRA
TAFPNS
TAF
KPNS 201144Z 2012/2112 00000KT P6SM FEW250
     FM202100 13007KT P6SM SCT250
     FM210900 00000KT P6SM BKN250=



000
FTUS44 KMOB 201100 RRA
TAFPNS
TAF
KPNS 201144Z 2012/2112 00000KT P6SM FEW250
     FM202100 13007KT P6SM SCT250
     FM210900 00000KT P6SM BKN250=



000
FTUS44 KMOB 201100 RRA
TAFMOB
TAF
KMOB 201144Z 2012/2112 00000KT P6SM SCT250
     FM202000 17007KT P6SM BKN250
     FM210900 00000KT P6SM BKN250=



000
FTUS44 KMOB 200500
TAFMOB
TAF
KMOB 200525Z 2006/2106 00000KT P6SM SKC
     FM201600 17007KT P6SM SCT250
     FM210300 00000KT P6SM SKC=



000
FTUS44 KMOB 200500
TAFPNS
TAF
KPNS 200525Z 2006/2106 00000KT P6SM SKC
     FM201600 14007KT P6SM SCT250
     FM210300 00000KT P6SM SKC=



000
FTUS44 KMOB 200500
TAFPNS
TAF
KPNS 200525Z 2006/2106 00000KT P6SM SKC
     FM201600 14007KT P6SM SCT250
     FM210300 00000KT P6SM SKC=



000
FTUS44 KMOB 200500
TAFMOB
TAF
KMOB 200525Z 2006/2106 00000KT P6SM SKC
     FM201600 17007KT P6SM SCT250
     FM210300 00000KT P6SM SKC=



    US Dept of Commerce
    National Oceanic and Atmospheric Administration
    National Weather Service
    1325 East West Highway
    Silver Spring, MD 20910
    Page Author: NWS Internet Services Team
Disclaimer
Information Quality
Credits
Glossary
Privacy Policy
Freedom of Information Act (FOIA)
About Us
Career Opportunities